sensor_id;sensor_type;location;lat;lon;timestamp;P1;durP1;ratioP1;P2;durP2;ratioP2
14907;SDS011;7545;52.092;7.006;2023-02-22T00:00:49;51.67;;;24.37;;
14907;SDS011;7545;52.092;7.006;2023-02-22T00:03:21;50.23;;;24.97;;
14907;SDS011;7545;52.092;7.006;2023-02-22T00:05:49;54.97;;;26.00;;
14907;SDS011;7545;52.092;7.006;2023-02-22T00:08:20;50.90;;;25.83;;
14907;SDS011;7545;52.092;7.006;2023-02-22T00:10:47;51.63;;;25.35;;
14907;SDS011;7545;52.092;7.006;2023-02-22T00:13:15;46.57;;;22.93;;
14907;SDS011;7545;52.092;7.006;2023-02-22T00:15:43;51.63;;;25.10;;
14907;SDS011;7545;52.092;7.006;2023-02-22T00:18:11;57.85;;;25.65;;
14907;SDS011;7545;52.092;7.006;2023-02-22T00:20:38;46.77;;;22.63;;
14907;SDS011;7545;52.092;7.006;2023-02-22T00:23:05;45.60;;;22.33;;
14907;SDS011;7545;52.092;7.006;2023-02-22T00:25:32;47.22;;;22.75;;
14907;SDS011;7545;52.092;7.006;2023-02-22T00:27:58;50.03;;;22.90;;
14907;SDS011;7545;52.092;7.006;2023-02-22T00:30:26;47.47;;;24.87;;
14907;SDS011;7545;52.092;7.006;2023-02-22T00:32:53;47.90;;;24.77;;
14907;SDS011;7545;52.092;7.006;2023-02-22T00:35:21;50.53;;;24.00;;
14907;SDS011;7545;52.092;7.006;2023-02-22T00:37:49;50.15;;;24.50;;
14907;SDS011;7545;52.092;7.006;2023-02-22T00:40:18;52.53;;;25.60;;
14907;SDS011;7545;52.092;7.006;2023-02-22T00:42:45;53.05;;;24.42;;
14907;SDS011;7545;52.092;7.006;2023-02-22T00:45:11;53.27;;;24.53;;
14907;SDS011;7545;52.092;7.006;2023-02-22T00:47:39;52.13;;;25.97;;
14907;SDS011;7545;52.092;7.006;2023-02-22T00:50:04;51.25;;;23.95;;
14907;SDS011;7545;52.092;7.006;2023-02-22T00:52:30;52.50;;;24.50;;
14907;SDS011;7545;52.092;7.006;2023-02-22T00:54:56;52.05;;;23.45;;
14907;SDS011;7545;52.092;7.006;2023-02-22T00:57:22;54.70;;;24.30;;
14907;SDS011;7545;52.092;7.006;2023-02-22T00:59:48;52.43;;;24.60;;
14907;SDS011;7545;52.092;7.006;2023-02-22T01:02:14;50.97;;;24.70;;
14907;SDS011;7545;52.092;7.006;2023-02-22T01:04:40;63.83;;;25.80;;
14907;SDS011;7545;52.092;7.006;2023-02-22T01:07:06;49.60;;;23.67;;
14907;SDS011;7545;52.092;7.006;2023-02-22T01:09:32;52.63;;;24.40;;
14907;SDS011;7545;52.092;7.006;2023-02-22T01:11:58;49.10;;;23.33;;
14907;SDS011;7545;52.092;7.006;2023-02-22T01:14:25;49.07;;;22.43;;
14907;SDS011;7545;52.092;7.006;2023-02-22T01:16:55;59.10;;;24.70;;
14907;SDS011;7545;52.092;7.006;2023-02-22T01:19:21;52.37;;;23.37;;
14907;SDS011;7545;52.092;7.006;2023-02-22T01:21:47;52.90;;;23.00;;
14907;SDS011;7545;52.092;7.006;2023-02-22T01:24:14;53.50;;;23.03;;
14907;SDS011;7545;52.092;7.006;2023-02-22T01:26:41;47.03;;;21.43;;
14907;SDS011;7545;52.092;7.006;2023-02-22T01:29:12;50.37;;;23.20;;
14907;SDS011;7545;52.092;7.006;2023-02-22T01:31:39;49.63;;;20.43;;
14907;SDS011;7545;52.092;7.006;2023-02-22T01:34:15;49.90;;;21.97;;
14907;SDS011;7545;52.092;7.006;2023-02-22T01:36:41;50.77;;;23.07;;
14907;SDS011;7545;52.092;7.006;2023-02-22T01:39:06;50.10;;;22.93;;
14907;SDS011;7545;52.092;7.006;2023-02-22T01:41:34;45.80;;;20.77;;
14907;SDS011;7545;52.092;7.006;2023-02-22T01:44:20;53.17;;;22.30;;
14907;SDS011;7545;52.092;7.006;2023-02-22T01:46:55;54.03;;;21.77;;
14907;SDS011;7545;52.092;7.006;2023-02-22T01:49:22;48.03;;;21.27;;
14907;SDS011;7545;52.092;7.006;2023-02-22T01:51:51;57.08;;;22.13;;
14907;SDS011;7545;52.092;7.006;2023-02-22T01:57:05;47.73;;;20.47;;
14907;SDS011;7545;52.092;7.006;2023-02-22T01:59:36;48.03;;;22.17;;
14907;SDS011;7545;52.092;7.006;2023-02-22T02:02:07;53.73;;;23.17;;
14907;SDS011;7545;52.092;7.006;2023-02-22T02:04:33;50.47;;;22.23;;
14907;SDS011;7545;52.092;7.006;2023-02-22T02:07:00;50.47;;;23.23;;
14907;SDS011;7545;52.092;7.006;2023-02-22T02:09:44;47.87;;;22.13;;
14907;SDS011;7545;52.092;7.006;2023-02-22T02:12:17;49.00;;;21.50;;
14907;SDS011;7545;52.092;7.006;2023-02-22T02:14:45;49.97;;;22.23;;
14907;SDS011;7545;52.092;7.006;2023-02-22T02:17:15;48.57;;;21.73;;
14907;SDS011;7545;52.092;7.006;2023-02-22T02:34:00;49.00;;;20.93;;
14907;SDS011;7545;52.092;7.006;2023-02-22T02:36:30;44.90;;;20.57;;
14907;SDS011;7545;52.092;7.006;2023-02-22T02:39:40;50.07;;;21.70;;
14907;SDS011;7545;52.092;7.006;2023-02-22T02:42:19;50.50;;;21.43;;
14907;SDS011;7545;52.092;7.006;2023-02-22T02:44:51;45.33;;;20.20;;
14907;SDS011;7545;52.092;7.006;2023-02-22T02:47:24;48.43;;;20.00;;
14907;SDS011;7545;52.092;7.006;2023-02-22T02:52:24;49.80;;;21.17;;
14907;SDS011;7545;52.092;7.006;2023-02-22T02:54:53;50.97;;;21.88;;
14907;SDS011;7545;52.092;7.006;2023-02-22T02:57:20;45.53;;;21.07;;
14907;SDS011;7545;52.092;7.006;2023-02-22T02:59:46;50.63;;;20.77;;
14907;SDS011;7545;52.092;7.006;2023-02-22T03:07:57;48.67;;;20.50;;
14907;SDS011;7545;52.092;7.006;2023-02-22T03:21:49;46.70;;;22.73;;
14907;SDS011;7545;52.092;7.006;2023-02-22T03:24:30;46.40;;;20.97;;
14907;SDS011;7545;52.092;7.006;2023-02-22T03:27:09;42.67;;;22.50;;
14907;SDS011;7545;52.092;7.006;2023-02-22T03:29:45;44.77;;;20.03;;
14907;SDS011;7545;52.092;7.006;2023-02-22T03:32:16;47.23;;;22.10;;
14907;SDS011;7545;52.092;7.006;2023-02-22T03:34:57;47.47;;;20.17;;
14907;SDS011;7545;52.092;7.006;2023-02-22T03:37:29;50.63;;;21.53;;
14907;SDS011;7545;52.092;7.006;2023-02-22T03:39:59;41.33;;;20.60;;
14907;SDS011;7545;52.092;7.006;2023-02-22T03:42:37;44.77;;;19.67;;
14907;SDS011;7545;52.092;7.006;2023-02-22T03:45:07;50.03;;;21.43;;
14907;SDS011;7545;52.092;7.006;2023-02-22T03:47:37;42.33;;;20.10;;
14907;SDS011;7545;52.092;7.006;2023-02-22T03:52:41;46.03;;;21.73;;
14907;SDS011;7545;52.092;7.006;2023-02-22T03:55:07;43.57;;;20.03;;
14907;SDS011;7545;52.092;7.006;2023-02-22T03:57:36;41.63;;;19.13;;
14907;SDS011;7545;52.092;7.006;2023-02-22T04:00:09;49.00;;;21.17;;
14907;SDS011;7545;52.092;7.006;2023-02-22T04:02:38;46.90;;;20.13;;
14907;SDS011;7545;52.092;7.006;2023-02-22T04:05:04;52.80;;;21.40;;
14907;SDS011;7545;52.092;7.006;2023-02-22T04:07:30;42.60;;;19.93;;
14907;SDS011;7545;52.092;7.006;2023-02-22T04:09:56;43.93;;;20.47;;
14907;SDS011;7545;52.092;7.006;2023-02-22T04:12:22;47.60;;;21.00;;
14907;SDS011;7545;52.092;7.006;2023-02-22T04:14:47;46.87;;;21.27;;
14907;SDS011;7545;52.092;7.006;2023-02-22T04:17:13;49.57;;;21.67;;
14907;SDS011;7545;52.092;7.006;2023-02-22T04:19:38;46.80;;;20.63;;
14907;SDS011;7545;52.092;7.006;2023-02-22T04:22:04;54.30;;;23.10;;
14907;SDS011;7545;52.092;7.006;2023-02-22T04:24:29;49.63;;;22.73;;
14907;SDS011;7545;52.092;7.006;2023-02-22T04:26:55;49.57;;;23.10;;
14907;SDS011;7545;52.092;7.006;2023-02-22T04:29:21;62.43;;;24.57;;
14907;SDS011;7545;52.092;7.006;2023-02-22T04:31:46;54.13;;;23.33;;
14907;SDS011;7545;52.092;7.006;2023-02-22T04:34:12;54.43;;;23.47;;
14907;SDS011;7545;52.092;7.006;2023-02-22T04:36:38;60.23;;;25.53;;
14907;SDS011;7545;52.092;7.006;2023-02-22T04:39:06;56.73;;;24.00;;
14907;SDS011;7545;52.092;7.006;2023-02-22T04:41:32;54.60;;;24.63;;
14907;SDS011;7545;52.092;7.006;2023-02-22T04:43:58;63.87;;;26.17;;
14907;SDS011;7545;52.092;7.006;2023-02-22T04:46:24;61.03;;;25.80;;
14907;SDS011;7545;52.092;7.006;2023-02-22T04:48:49;56.33;;;25.37;;
14907;SDS011;7545;52.092;7.006;2023-02-22T04:51:15;61.27;;;24.73;;
14907;SDS011;7545;52.092;7.006;2023-02-22T04:53:41;50.90;;;23.20;;
14907;SDS011;7545;52.092;7.006;2023-02-22T04:56:06;57.67;;;24.20;;
14907;SDS011;7545;52.092;7.006;2023-02-22T04:58:32;55.63;;;24.00;;
14907;SDS011;7545;52.092;7.006;2023-02-22T05:00:58;60.30;;;24.57;;
14907;SDS011;7545;52.092;7.006;2023-02-22T05:03:24;60.37;;;23.73;;
14907;SDS011;7545;52.092;7.006;2023-02-22T05:05:50;66.63;;;26.37;;
14907;SDS011;7545;52.092;7.006;2023-02-22T05:08:17;59.77;;;25.37;;
14907;SDS011;7545;52.092;7.006;2023-02-22T05:10:42;57.73;;;23.57;;
14907;SDS011;7545;52.092;7.006;2023-02-22T05:13:08;59.60;;;24.37;;
14907;SDS011;7545;52.092;7.006;2023-02-22T05:15:33;61.87;;;26.17;;
14907;SDS011;7545;52.092;7.006;2023-02-22T05:17:59;64.50;;;27.33;;
14907;SDS011;7545;52.092;7.006;2023-02-22T05:20:29;56.63;;;25.33;;
14907;SDS011;7545;52.092;7.006;2023-02-22T05:22:58;52.20;;;22.37;;
14907;SDS011;7545;52.092;7.006;2023-02-22T05:25:25;65.03;;;25.37;;
14907;SDS011;7545;52.092;7.006;2023-02-22T05:27:54;56.17;;;24.33;;
14907;SDS011;7545;52.092;7.006;2023-02-22T05:30:33;59.67;;;24.53;;
14907;SDS011;7545;52.092;7.006;2023-02-22T05:33:00;67.90;;;23.50;;
14907;SDS011;7545;52.092;7.006;2023-02-22T05:35:26;49.17;;;22.77;;
14907;SDS011;7545;52.092;7.006;2023-02-22T05:37:53;61.07;;;25.47;;
14907;SDS011;7545;52.092;7.006;2023-02-22T05:40:20;61.07;;;24.70;;
14907;SDS011;7545;52.092;7.006;2023-02-22T05:42:48;60.40;;;25.10;;
14907;SDS011;7545;52.092;7.006;2023-02-22T05:45:15;57.20;;;24.63;;
14907;SDS011;7545;52.092;7.006;2023-02-22T05:47:42;59.87;;;24.93;;
14907;SDS011;7545;52.092;7.006;2023-02-22T05:50:09;62.70;;;25.73;;
14907;SDS011;7545;52.092;7.006;2023-02-22T05:52:35;58.30;;;24.50;;
14907;SDS011;7545;52.092;7.006;2023-02-22T05:55:01;52.77;;;22.50;;
14907;SDS011;7545;52.092;7.006;2023-02-22T05:57:26;64.47;;;24.90;;
14907;SDS011;7545;52.092;7.006;2023-02-22T05:59:52;64.63;;;26.53;;
14907;SDS011;7545;52.092;7.006;2023-02-22T06:02:17;56.70;;;23.87;;
14907;SDS011;7545;52.092;7.006;2023-02-22T06:04:44;58.57;;;24.10;;
14907;SDS011;7545;52.092;7.006;2023-02-22T06:07:10;63.60;;;25.23;;
14907;SDS011;7545;52.092;7.006;2023-02-22T06:09:36;59.27;;;23.90;;
14907;SDS011;7545;52.092;7.006;2023-02-22T06:12:02;63.40;;;24.97;;
14907;SDS011;7545;52.092;7.006;2023-02-22T06:14:27;54.50;;;24.13;;
14907;SDS011;7545;52.092;7.006;2023-02-22T06:16:54;58.80;;;24.37;;
14907;SDS011;7545;52.092;7.006;2023-02-22T06:19:20;61.87;;;24.67;;
14907;SDS011;7545;52.092;7.006;2023-02-22T06:21:50;65.73;;;25.83;;
14907;SDS011;7545;52.092;7.006;2023-02-22T06:24:16;59.07;;;24.43;;
14907;SDS011;7545;52.092;7.006;2023-02-22T06:26:42;62.27;;;23.77;;
14907;SDS011;7545;52.092;7.006;2023-02-22T06:29:07;62.17;;;23.53;;
14907;SDS011;7545;52.092;7.006;2023-02-22T06:31:33;64.10;;;24.73;;
14907;SDS011;7545;52.092;7.006;2023-02-22T06:33:59;60.60;;;24.03;;
14907;SDS011;7545;52.092;7.006;2023-02-22T06:36:25;60.27;;;24.33;;
14907;SDS011;7545;52.092;7.006;2023-02-22T06:38:50;59.50;;;23.93;;
14907;SDS011;7545;52.092;7.006;2023-02-22T06:41:16;55.83;;;24.47;;
14907;SDS011;7545;52.092;7.006;2023-02-22T06:43:41;55.30;;;23.90;;
14907;SDS011;7545;52.092;7.006;2023-02-22T06:46:10;61.33;;;24.30;;
14907;SDS011;7545;52.092;7.006;2023-02-22T06:48:36;58.47;;;24.73;;
14907;SDS011;7545;52.092;7.006;2023-02-22T06:51:04;54.03;;;24.00;;
14907;SDS011;7545;52.092;7.006;2023-02-22T06:53:32;65.20;;;26.07;;
14907;SDS011;7545;52.092;7.006;2023-02-22T06:55:58;58.80;;;23.73;;
14907;SDS011;7545;52.092;7.006;2023-02-22T06:58:23;56.37;;;23.77;;
14907;SDS011;7545;52.092;7.006;2023-02-22T07:00:49;55.20;;;23.83;;
14907;SDS011;7545;52.092;7.006;2023-02-22T07:03:14;48.27;;;21.93;;
14907;SDS011;7545;52.092;7.006;2023-02-22T07:05:41;59.10;;;24.40;;
14907;SDS011;7545;52.092;7.006;2023-02-22T07:08:06;47.77;;;23.13;;
14907;SDS011;7545;52.092;7.006;2023-02-22T07:10:33;52.57;;;22.83;;
14907;SDS011;7545;52.092;7.006;2023-02-22T07:13:00;51.37;;;22.80;;
14907;SDS011;7545;52.092;7.006;2023-02-22T07:15:28;55.43;;;20.57;;
14907;SDS011;7545;52.092;7.006;2023-02-22T07:17:55;52.70;;;21.07;;
14907;SDS011;7545;52.092;7.006;2023-02-22T07:20:21;45.77;;;19.97;;
14907;SDS011;7545;52.092;7.006;2023-02-22T07:22:48;49.83;;;20.17;;
14907;SDS011;7545;52.092;7.006;2023-02-22T07:25:14;44.63;;;19.30;;
14907;SDS011;7545;52.092;7.006;2023-02-22T07:27:40;42.93;;;18.93;;
14907;SDS011;7545;52.092;7.006;2023-02-22T07:30:07;42.47;;;18.77;;
14907;SDS011;7545;52.092;7.006;2023-02-22T07:32:42;42.97;;;18.37;;
14907;SDS011;7545;52.092;7.006;2023-02-22T07:35:15;35.60;;;17.77;;
14907;SDS011;7545;52.092;7.006;2023-02-22T07:37:48;42.50;;;19.87;;
14907;SDS011;7545;52.092;7.006;2023-02-22T07:40:14;44.63;;;18.83;;
14907;SDS011;7545;52.092;7.006;2023-02-22T07:43:42;44.23;;;19.40;;
14907;SDS011;7545;52.092;7.006;2023-02-22T07:45:44;41.50;;;18.23;;
14907;SDS011;7545;52.092;7.006;2023-02-22T07:48:10;37.47;;;16.87;;
14907;SDS011;7545;52.092;7.006;2023-02-22T07:50:39;46.67;;;18.13;;
14907;SDS011;7545;52.092;7.006;2023-02-22T07:53:06;42.83;;;18.93;;
14907;SDS011;7545;52.092;7.006;2023-02-22T07:55:35;41.67;;;18.17;;
14907;SDS011;7545;52.092;7.006;2023-02-22T07:58:02;39.87;;;18.00;;
14907;SDS011;7545;52.092;7.006;2023-02-22T08:00:31;36.53;;;16.93;;
14907;SDS011;7545;52.092;7.006;2023-02-22T08:02:59;45.97;;;18.13;;
14907;SDS011;7545;52.092;7.006;2023-02-22T08:05:27;37.90;;;18.20;;
14907;SDS011;7545;52.092;7.006;2023-02-22T08:07:53;41.20;;;17.87;;
14907;SDS011;7545;52.092;7.006;2023-02-22T08:10:20;34.13;;;16.30;;
14907;SDS011;7545;52.092;7.006;2023-02-22T08:12:47;37.77;;;17.80;;
14907;SDS011;7545;52.092;7.006;2023-02-22T08:17:49;37.03;;;17.13;;
14907;SDS011;7545;52.092;7.006;2023-02-22T08:20:15;35.13;;;17.33;;
14907;SDS011;7545;52.092;7.006;2023-02-22T08:22:42;36.27;;;15.93;;
14907;SDS011;7545;52.092;7.006;2023-02-22T08:25:08;43.13;;;18.70;;
14907;SDS011;7545;52.092;7.006;2023-02-22T08:27:34;36.03;;;18.87;;
14907;SDS011;7545;52.092;7.006;2023-02-22T08:29:59;41.07;;;18.80;;
14907;SDS011;7545;52.092;7.006;2023-02-22T08:32:25;44.00;;;18.67;;
14907;SDS011;7545;52.092;7.006;2023-02-22T08:34:51;42.40;;;21.80;;
14907;SDS011;7545;52.092;7.006;2023-02-22T08:37:17;38.00;;;20.47;;
14907;SDS011;7545;52.092;7.006;2023-02-22T08:39:43;46.27;;;21.30;;
14907;SDS011;7545;52.092;7.006;2023-02-22T08:42:09;37.37;;;18.30;;
14907;SDS011;7545;52.092;7.006;2023-02-22T08:44:35;36.90;;;19.23;;
14907;SDS011;7545;52.092;7.006;2023-02-22T08:47:02;36.80;;;18.87;;
14907;SDS011;7545;52.092;7.006;2023-02-22T08:49:28;36.23;;;19.07;;
14907;SDS011;7545;52.092;7.006;2023-02-22T08:51:53;39.63;;;19.83;;
14907;SDS011;7545;52.092;7.006;2023-02-22T08:54:19;37.10;;;19.97;;
14907;SDS011;7545;52.092;7.006;2023-02-22T08:56:46;41.23;;;21.30;;
14907;SDS011;7545;52.092;7.006;2023-02-22T08:59:12;39.33;;;19.73;;
14907;SDS011;7545;52.092;7.006;2023-02-22T09:01:38;38.00;;;19.83;;
14907;SDS011;7545;52.092;7.006;2023-02-22T09:04:04;42.97;;;20.83;;
14907;SDS011;7545;52.092;7.006;2023-02-22T09:06:30;38.23;;;21.27;;
14907;SDS011;7545;52.092;7.006;2023-02-22T09:08:55;36.50;;;20.30;;
14907;SDS011;7545;52.092;7.006;2023-02-22T09:11:21;41.80;;;21.13;;
14907;SDS011;7545;52.092;7.006;2023-02-22T09:13:46;36.47;;;19.83;;
14907;SDS011;7545;52.092;7.006;2023-02-22T09:16:12;37.33;;;19.03;;
14907;SDS011;7545;52.092;7.006;2023-02-22T09:18:38;35.93;;;17.97;;
14907;SDS011;7545;52.092;7.006;2023-02-22T09:21:04;40.23;;;20.20;;
14907;SDS011;7545;52.092;7.006;2023-02-22T09:23:29;35.67;;;18.60;;
14907;SDS011;7545;52.092;7.006;2023-02-22T09:25:55;37.07;;;19.57;;
14907;SDS011;7545;52.092;7.006;2023-02-22T09:28:23;35.27;;;18.50;;
14907;SDS011;7545;52.092;7.006;2023-02-22T09:30:48;36.73;;;20.20;;
14907;SDS011;7545;52.092;7.006;2023-02-22T09:33:16;35.80;;;19.90;;
14907;SDS011;7545;52.092;7.006;2023-02-22T09:35:44;31.50;;;18.70;;
14907;SDS011;7545;52.092;7.006;2023-02-22T09:38:12;35.57;;;19.33;;
14907;SDS011;7545;52.092;7.006;2023-02-22T09:40:41;36.90;;;18.70;;
14907;SDS011;7545;52.092;7.006;2023-02-22T09:46:07;38.20;;;18.73;;
14907;SDS011;7545;52.092;7.006;2023-02-22T09:51:43;37.80;;;17.63;;
14907;SDS011;7545;52.092;7.006;2023-02-22T09:54:36;38.60;;;20.20;;
14907;SDS011;7545;52.092;7.006;2023-02-22T09:57:06;35.50;;;18.93;;
14907;SDS011;7545;52.092;7.006;2023-02-22T09:59:38;34.80;;;19.92;;
14907;SDS011;7545;52.092;7.006;2023-02-22T10:02:42;36.63;;;19.70;;
14907;SDS011;7545;52.092;7.006;2023-02-22T10:05:05;35.28;;;20.17;;
14907;SDS011;7545;52.092;7.006;2023-02-22T10:07:45;39.60;;;20.42;;
14907;SDS011;7545;52.092;7.006;2023-02-22T10:10:18;34.17;;;19.20;;
14907;SDS011;7545;52.092;7.006;2023-02-22T10:15:46;30.58;;;17.58;;
14907;SDS011;7545;52.092;7.006;2023-02-22T10:27:03;33.97;;;18.42;;
14907;SDS011;7545;52.092;7.006;2023-02-22T10:32:05;39.00;;;19.40;;
14907;SDS011;7545;52.092;7.006;2023-02-22T10:34:46;35.88;;;19.77;;
14907;SDS011;7545;52.092;7.006;2023-02-22T10:39:59;40.45;;;21.48;;
14907;SDS011;7545;52.092;7.006;2023-02-22T10:42:36;37.90;;;19.40;;
14907;SDS011;7545;52.092;7.006;2023-02-22T10:45:01;39.97;;;20.48;;
14907;SDS011;7545;52.092;7.006;2023-02-22T10:47:27;34.75;;;18.90;;
14907;SDS011;7545;52.092;7.006;2023-02-22T10:49:57;38.38;;;19.98;;
14907;SDS011;7545;52.092;7.006;2023-02-22T10:54:53;37.45;;;20.25;;
14907;SDS011;7545;52.092;7.006;2023-02-22T10:57:22;36.95;;;20.45;;
14907;SDS011;7545;52.092;7.006;2023-02-22T10:59:51;34.08;;;19.58;;
14907;SDS011;7545;52.092;7.006;2023-02-22T11:02:20;39.63;;;19.77;;
14907;SDS011;7545;52.092;7.006;2023-02-22T11:04:55;39.80;;;22.10;;
14907;SDS011;7545;52.092;7.006;2023-02-22T11:07:27;33.88;;;19.15;;
14907;SDS011;7545;52.092;7.006;2023-02-22T11:09:57;34.63;;;18.88;;
14907;SDS011;7545;52.092;7.006;2023-02-22T11:12:29;35.60;;;20.02;;
14907;SDS011;7545;52.092;7.006;2023-02-22T11:17:49;29.45;;;17.45;;
14907;SDS011;7545;52.092;7.006;2023-02-22T11:20:30;32.58;;;17.60;;
14907;SDS011;7545;52.092;7.006;2023-02-22T11:23:02;29.02;;;17.10;;
14907;SDS011;7545;52.092;7.006;2023-02-22T11:25:36;33.95;;;17.02;;
14907;SDS011;7545;52.092;7.006;2023-02-22T11:28:07;29.50;;;16.70;;
14907;SDS011;7545;52.092;7.006;2023-02-22T11:30:38;32.45;;;18.48;;
14907;SDS011;7545;52.092;7.006;2023-02-22T11:38:20;32.13;;;19.08;;
14907;SDS011;7545;52.092;7.006;2023-02-22T11:41:04;29.52;;;17.10;;
14907;SDS011;7545;52.092;7.006;2023-02-22T11:43:47;28.63;;;18.38;;
14907;SDS011;7545;52.092;7.006;2023-02-22T11:46:21;31.33;;;17.45;;
14907;SDS011;7545;52.092;7.006;2023-02-22T12:00:23;27.00;;;15.90;;
14907;SDS011;7545;52.092;7.006;2023-02-22T12:02:53;25.80;;;15.77;;
14907;SDS011;7545;52.092;7.006;2023-02-22T12:05:51;31.95;;;15.95;;
14907;SDS011;7545;52.092;7.006;2023-02-22T12:08:32;22.70;;;14.70;;
14907;SDS011;7545;52.092;7.006;2023-02-22T12:11:17;24.80;;;15.32;;
14907;SDS011;7545;52.092;7.006;2023-02-22T12:22:01;23.85;;;13.68;;
14907;SDS011;7545;52.092;7.006;2023-02-22T12:24:37;18.42;;;12.68;;
14907;SDS011;7545;52.092;7.006;2023-02-22T12:27:41;20.95;;;14.85;;
14907;SDS011;7545;52.092;7.006;2023-02-22T12:43:17;17.50;;;12.20;;
14907;SDS011;7545;52.092;7.006;2023-02-22T12:51:14;18.75;;;10.27;;
14907;SDS011;7545;52.092;7.006;2023-02-22T12:59:44;14.73;;;10.15;;
14907;SDS011;7545;52.092;7.006;2023-02-22T13:02:19;14.55;;;9.88;;
14907;SDS011;7545;52.092;7.006;2023-02-22T13:04:45;14.18;;;9.40;;
14907;SDS011;7545;52.092;7.006;2023-02-22T13:18:10;15.82;;;9.88;;
14907;SDS011;7545;52.092;7.006;2023-02-22T13:26:24;14.68;;;9.50;;
14907;SDS011;7545;52.092;7.006;2023-02-22T13:29:21;12.68;;;8.57;;
14907;SDS011;7545;52.092;7.006;2023-02-22T13:31:58;12.05;;;8.68;;
14907;SDS011;7545;52.092;7.006;2023-02-22T13:47:58;15.48;;;8.52;;
14907;SDS011;7545;52.092;7.006;2023-02-22T13:52:56;14.02;;;9.52;;
14907;SDS011;7545;52.092;7.006;2023-02-22T13:55:28;15.25;;;9.13;;
14907;SDS011;7545;52.092;7.006;2023-02-22T13:58:05;12.93;;;9.07;;
14907;SDS011;7545;52.092;7.006;2023-02-22T14:00:49;14.30;;;9.73;;
14907;SDS011;7545;52.092;7.006;2023-02-22T14:05:51;12.20;;;8.70;;
14907;SDS011;7545;52.092;7.006;2023-02-22T14:11:03;14.82;;;9.25;;
14907;SDS011;7545;52.092;7.006;2023-02-22T14:16:36;18.27;;;10.45;;
14907;SDS011;7545;52.092;7.006;2023-02-22T14:21:37;18.58;;;11.73;;
14907;SDS011;7545;52.092;7.006;2023-02-22T14:24:26;17.83;;;10.85;;
14907;SDS011;7545;52.092;7.006;2023-02-22T14:27:06;15.63;;;11.32;;
14907;SDS011;7545;52.092;7.006;2023-02-22T14:29:33;17.15;;;10.68;;
14907;SDS011;7545;52.092;7.006;2023-02-22T14:32:16;17.55;;;11.20;;
14907;SDS011;7545;52.092;7.006;2023-02-22T14:34:44;18.52;;;11.75;;
14907;SDS011;7545;52.092;7.006;2023-02-22T14:37:23;17.55;;;12.02;;
14907;SDS011;7545;52.092;7.006;2023-02-22T14:42:50;19.23;;;11.23;;
14907;SDS011;7545;52.092;7.006;2023-02-22T14:45:26;16.48;;;10.98;;
14907;SDS011;7545;52.092;7.006;2023-02-22T14:55:40;17.08;;;9.88;;
14907;SDS011;7545;52.092;7.006;2023-02-22T14:58:19;16.80;;;10.32;;
14907;SDS011;7545;52.092;7.006;2023-02-22T15:03:50;20.92;;;12.15;;
14907;SDS011;7545;52.092;7.006;2023-02-22T15:06:23;16.58;;;9.90;;
14907;SDS011;7545;52.092;7.006;2023-02-22T15:09:06;15.85;;;9.88;;
14907;SDS011;7545;52.092;7.006;2023-02-22T15:11:34;17.10;;;10.43;;
14907;SDS011;7545;52.092;7.006;2023-02-22T15:14:00;15.63;;;10.23;;
14907;SDS011;7545;52.092;7.006;2023-02-22T15:16:31;18.00;;;11.40;;
14907;SDS011;7545;52.092;7.006;2023-02-22T15:18:59;18.02;;;10.27;;
14907;SDS011;7545;52.092;7.006;2023-02-22T15:21:30;19.60;;;10.27;;
14907;SDS011;7545;52.092;7.006;2023-02-22T15:24:05;15.05;;;10.20;;
14907;SDS011;7545;52.092;7.006;2023-02-22T15:26:35;17.55;;;11.68;;
14907;SDS011;7545;52.092;7.006;2023-02-22T15:31:50;17.73;;;10.65;;
14907;SDS011;7545;52.092;7.006;2023-02-22T15:36:48;15.40;;;10.27;;
14907;SDS011;7545;52.092;7.006;2023-02-22T15:39:23;37.58;;;10.95;;
14907;SDS011;7545;52.092;7.006;2023-02-22T15:44:50;21.23;;;10.13;;
14907;SDS011;7545;52.092;7.006;2023-02-22T15:47:25;15.88;;;9.70;;
14907;SDS011;7545;52.092;7.006;2023-02-22T15:53:00;15.52;;;10.63;;
14907;SDS011;7545;52.092;7.006;2023-02-22T15:55:29;13.13;;;8.90;;
14907;SDS011;7545;52.092;7.006;2023-02-22T15:58:06;14.75;;;10.30;;
14907;SDS011;7545;52.092;7.006;2023-02-22T16:00:33;15.77;;;9.38;;
14907;SDS011;7545;52.092;7.006;2023-02-22T16:03:06;14.10;;;9.80;;
14907;SDS011;7545;52.092;7.006;2023-02-22T16:05:45;15.63;;;10.48;;
14907;SDS011;7545;52.092;7.006;2023-02-22T16:08:20;14.50;;;10.77;;
14907;SDS011;7545;52.092;7.006;2023-02-22T16:13:28;18.08;;;10.88;;
14907;SDS011;7545;52.092;7.006;2023-02-22T16:15:57;16.30;;;10.98;;
14907;SDS011;7545;52.092;7.006;2023-02-22T16:18:30;17.73;;;10.88;;
14907;SDS011;7545;52.092;7.006;2023-02-22T16:20:56;18.13;;;11.68;;
14907;SDS011;7545;52.092;7.006;2023-02-22T16:23:30;18.67;;;10.60;;
14907;SDS011;7545;52.092;7.006;2023-02-22T16:28:56;22.55;;;14.02;;
14907;SDS011;7545;52.092;7.006;2023-02-22T16:31:24;26.75;;;14.95;;
14907;SDS011;7545;52.092;7.006;2023-02-22T16:33:52;28.13;;;15.48;;
14907;SDS011;7545;52.092;7.006;2023-02-22T16:36:19;24.45;;;14.07;;
14907;SDS011;7545;52.092;7.006;2023-02-22T16:38:47;18.63;;;11.32;;
14907;SDS011;7545;52.092;7.006;2023-02-22T16:41:15;17.42;;;11.23;;
14907;SDS011;7545;52.092;7.006;2023-02-22T16:43:44;18.38;;;11.57;;
14907;SDS011;7545;52.092;7.006;2023-02-22T16:46:14;16.65;;;11.77;;
14907;SDS011;7545;52.092;7.006;2023-02-22T16:48:42;18.83;;;12.23;;
14907;SDS011;7545;52.092;7.006;2023-02-22T16:51:23;20.40;;;12.10;;
14907;SDS011;7545;52.092;7.006;2023-02-22T16:53:51;19.73;;;10.45;;
14907;SDS011;7545;52.092;7.006;2023-02-22T16:56:18;18.25;;;11.10;;
14907;SDS011;7545;52.092;7.006;2023-02-22T16:58:49;15.75;;;10.95;;
14907;SDS011;7545;52.092;7.006;2023-02-22T17:01:16;17.92;;;11.52;;
14907;SDS011;7545;52.092;7.006;2023-02-22T17:03:43;18.25;;;12.00;;
14907;SDS011;7545;52.092;7.006;2023-02-22T17:06:08;23.85;;;13.68;;
14907;SDS011;7545;52.092;7.006;2023-02-22T17:08:35;18.42;;;11.73;;
14907;SDS011;7545;52.092;7.006;2023-02-22T17:11:04;19.38;;;13.02;;
14907;SDS011;7545;52.092;7.006;2023-02-22T17:13:31;21.70;;;12.55;;
14907;SDS011;7545;52.092;7.006;2023-02-22T17:15:59;17.85;;;12.75;;
14907;SDS011;7545;52.092;7.006;2023-02-22T17:18:25;20.27;;;12.40;;
14907;SDS011;7545;52.092;7.006;2023-02-22T17:20:54;20.13;;;12.23;;
14907;SDS011;7545;52.092;7.006;2023-02-22T17:23:20;20.48;;;12.65;;
14907;SDS011;7545;52.092;7.006;2023-02-22T17:28:15;20.25;;;13.68;;
14907;SDS011;7545;52.092;7.006;2023-02-22T17:30:40;19.10;;;12.40;;
14907;SDS011;7545;52.092;7.006;2023-02-22T17:33:09;19.23;;;12.80;;
14907;SDS011;7545;52.092;7.006;2023-02-22T17:35:39;22.85;;;14.52;;
14907;SDS011;7545;52.092;7.006;2023-02-22T17:38:05;21.17;;;13.45;;
14907;SDS011;7545;52.092;7.006;2023-02-22T17:40:35;22.25;;;14.20;;
14907;SDS011;7545;52.092;7.006;2023-02-22T17:43:02;20.30;;;13.35;;
14907;SDS011;7545;52.092;7.006;2023-02-22T17:45:29;22.08;;;13.93;;
14907;SDS011;7545;52.092;7.006;2023-02-22T17:47:55;22.08;;;14.60;;
14907;SDS011;7545;52.092;7.006;2023-02-22T17:50:23;21.88;;;14.25;;
14907;SDS011;7545;52.092;7.006;2023-02-22T17:52:49;23.13;;;14.90;;
14907;SDS011;7545;52.092;7.006;2023-02-22T17:55:19;27.40;;;16.48;;
14907;SDS011;7545;52.092;7.006;2023-02-22T17:57:46;26.58;;;15.73;;
14907;SDS011;7545;52.092;7.006;2023-02-22T18:00:16;25.90;;;17.50;;
14907;SDS011;7545;52.092;7.006;2023-02-22T18:02:48;26.33;;;15.57;;
14907;SDS011;7545;52.092;7.006;2023-02-22T18:05:15;23.38;;;14.85;;